Time;durP1;ratioP1;P1;durP2;ratioP2;P2;SDS_P1;SDS_P2;PMS_P1;PMS_P2;Temp;Humidity;BMP_temperature;BMP_pressure;BME280_temperature;BME280_humidity;BME280_pressure;Samples;Min_cycle;Max_cycle;Signal;HPM_P1;HPM_P2
2023/06/01 00:00:10;;;;;;;0.75;0.75;;;;;;;15.21;65.23;99759.97;5054059;28;19920;-71
2023/06/01 00:02:42;;;;;;;1.67;1.20;;;;;;;15.19;65.25;99760.88;5054367;28;20110;-71
2023/06/01 00:05:11;;;;;;;0.93;0.77;;;;;;;15.24;64.89;99756.50;5054359;28;20495;-71
2023/06/01 00:07:39;;;;;;;0.90;0.83;;;;;;;15.14;65.01;99749.84;5053886;28;20110;-71
2023/06/01 00:10:09;;;;;;;0.50;0.50;;;;;;;15.04;65.07;99750.88;5053919;28;20037;-71
2023/06/01 00:12:38;;;;;;;0.50;0.50;;;;;;;15.05;64.88;99755.13;5053841;28;20053;-71
2023/06/01 00:15:10;;;;;;;0.50;0.50;;;;;;;15.01;64.89;99758.66;5053898;28;20049;-71
2023/06/01 00:17:39;;;;;;;0.60;0.60;;;;;;;14.91;65.00;99762.25;5053629;28;20590;-71
2023/06/01 00:20:08;;;;;;;1.33;1.20;;;;;;;14.81;65.62;99758.13;5053883;28;20033;-71
2023/06/01 00:22:39;;;;;;;0.60;0.60;;;;;;;14.77;65.93;99763.34;5052489;28;20045;-71
2023/06/01 00:25:07;;;;;;;;;;;;;;;14.78;65.73;99759.88;5054419;28;20045;-71
2023/06/01 00:27:37;;;;;;;0.35;0.35;;;;;;;14.85;65.58;99767.50;5053620;28;19967;-71
2023/06/01 00:30:08;;;;;;;0.88;0.88;;;;;;;14.88;65.35;99767.44;5052607;28;20051;-71
2023/06/01 00:32:39;;;;;;;1.10;0.73;;;;;;;14.71;65.26;99736.88;5053845;28;20502;-71
2023/06/01 00:35:08;;;;;;;0.63;0.63;;;;;;;14.89;65.40;99758.84;5053852;28;20053;-71
2023/06/01 00:37:37;;;;;;;0.63;0.63;;;;;;;14.87;65.37;99760.59;5053367;28;20053;-71
2023/06/01 00:40:07;;;;;;;0.60;0.57;;;;;;;14.83;65.40;99766.69;5053460;28;20041;-71
2023/06/01 00:42:36;;;;;;;0.90;0.80;;;;;;;14.74;65.53;99765.94;5053407;28;20406;-70
2023/06/01 00:45:06;;;;;;;2.10;1.20;;;;;;;14.76;65.50;99769.34;5053378;28;20139;-70
2023/06/01 00:47:43;;;;;;;0.52;0.52;;;;;;;14.77;65.63;99754.78;5053696;28;20063;-71
2023/06/01 00:50:13;;;;;;;1.25;1.15;;;;;;;14.71;65.96;99763.41;5052024;28;20111;-71
2023/06/01 00:52:43;;;;;;;0.93;0.93;;;;;;;14.48;66.62;99750.09;5053298;28;20045;-70
2023/06/01 00:55:14;;;;;;;0.68;0.68;;;;;;;14.35;67.05;99756.28;5053394;28;20131;-70
2023/06/01 00:57:44;;;;;;;0.88;0.85;;;;;;;14.16;67.66;99759.94;5051972;28;20037;-70
2023/06/01 01:00:14;;;;;;;0.52;0.52;;;;;;;14.23;68.14;99765.88;5052155;28;20044;-70
2023/06/01 01:02:45;;;;;;;0.50;0.50;;;;;;;14.33;67.47;99770.88;5053167;28;20045;-69
2023/06/01 01:05:14;;;;;;;1.10;0.98;;;;;;;14.40;67.51;99767.34;5053203;28;20056;-70
2023/06/01 01:07:53;;;;;;;1.40;0.88;;;;;;;14.45;67.21;99762.13;5053405;28;20136;-70
2023/06/01 01:10:29;;;;;;;0.87;0.87;;;;;;;14.46;66.88;99759.56;5052184;28;20049;-71
2023/06/01 01:13:07;;;;;;;0.40;0.40;;;;;;;14.42;67.04;99747.59;5053188;28;20285;-71
2023/06/01 01:15:50;;;;;;;1.15;1.05;;;;;;;14.48;67.16;99755.25;5053046;28;20131;-70
2023/06/01 01:18:32;;;;;;;0.88;0.85;;;;;;;14.38;67.01;99756.25;5051953;28;20045;-70
2023/06/01 01:21:21;;;;;;;0.60;0.60;;;;;;;14.26;67.37;99756.38;5051964;28;20132;-69
2023/06/01 01:24:14;;;;;;;1.95;1.77;;;;;;;14.27;67.56;99758.09;5051689;28;20048;-69
2023/06/01 01:26:54;;;;;;;1.10;0.95;;;;;;;14.25;67.88;99759.84;5052443;28;20383;-70
2023/06/01 01:29:27;;;;;;;0.75;0.70;;;;;;;14.22;67.94;99752.19;5053082;28;20072;-70
2023/06/01 01:31:58;;;;;;;0.70;0.70;;;;;;;14.11;68.36;99741.19;5052939;28;20420;-70
2023/06/01 01:34:29;;;;;;;1.17;1.08;;;;;;;14.08;68.30;99741.25;5056439;28;20048;-70
2023/06/01 01:36:59;;;;;;;0.60;0.60;;;;;;;13.99;68.09;99720.84;5056787;28;20069;-70
2023/06/01 01:39:28;;;;;;;1.35;0.80;;;;;;;14.18;68.26;99750.50;5056868;28;20128;-70
2023/06/01 01:41:57;;;;;;;1.90;0.87;;;;;;;14.17;67.93;99741.13;5055355;28;20486;-70
2023/06/01 01:44:29;;;;;;;0.70;0.70;;;;;;;14.22;67.94;99756.47;5055407;28;20052;-69
2023/06/01 01:47:09;;;;;;;0.40;0.40;;;;;;;14.20;67.95;99746.22;5056667;28;20132;-70
2023/06/01 01:49:44;;;;;;;0.70;0.70;;;;;;;14.23;67.93;99745.34;5055195;28;20044;-72
2023/06/01 01:52:19;;;;;;;1.05;0.98;;;;;;;14.28;67.69;99744.38;5055440;28;20076;-70
2023/06/01 01:54:51;;;;;;;0.50;0.50;;;;;;;14.24;67.40;99742.72;5055258;28;20045;-70
2023/06/01 01:57:23;;;;;;;0.50;0.50;;;;;;;14.16;67.75;99739.41;5055213;28;20068;-70
2023/06/01 01:59:54;;;;;;;2.45;0.93;;;;;;;14.11;67.54;99752.31;5056246;28;20072;-69
2023/06/01 02:02:23;;;;;;;0.50;0.50;;;;;;;14.03;67.82;99750.75;5055566;28;20098;-69
2023/06/01 02:04:52;;;;;;;1.35;1.20;;;;;;;13.99;68.27;99749.06;5056551;28;20047;-71
2023/06/01 02:07:23;;;;;;;0.40;0.40;;;;;;;13.91;68.24;99743.19;5056589;28;20052;-70
2023/06/01 02:09:52;;;;;;;0.93;0.82;;;;;;;13.90;68.33;99742.34;5056101;28;20114;-69
2023/06/01 02:12:21;;;;;;;0.50;0.50;;;;;;;13.83;68.50;99745.00;5055012;28;20137;-69
2023/06/01 02:14:51;;;;;;;0.73;0.70;;;;;;;13.78;68.78;99729.69;5056027;28;20071;-72
2023/06/01 02:17:21;;;;;;;0.70;0.70;;;;;;;13.85;69.15;99745.84;5055077;28;20429;-72
2023/06/01 02:19:52;;;;;;;1.27;0.57;;;;;;;13.82;68.74;99744.16;5055986;28;20643;-71
2023/06/01 02:22:21;;;;;;;2.08;1.15;;;;;;;13.77;69.08;99734.84;5054854;28;20065;-72
2023/06/01 02:24:50;;;;;;;2.00;1.57;;;;;;;13.67;68.91;99743.50;4698692;22;20049;-62
2023/06/01 02:27:20;;;;;;;0.68;0.68;;;;;;;13.62;69.41;99740.16;5054625;28;20312;-62
2023/06/01 02:29:49;;;;;;;1.13;0.95;;;;;;;13.64;69.19;99740.97;5056222;28;20099;-62
2023/06/01 02:32:18;;;;;;;0.40;0.40;;;;;;;13.49;69.36;99738.59;5055796;28;20128;-62
2023/06/01 02:34:48;;;;;;;0.40;0.40;;;;;;;13.21;69.68;99738.91;5054835;28;20397;-62
2023/06/01 02:37:17;;;;;;;1.02;0.77;;;;;;;12.98;70.45;99740.78;5054565;28;20266;-62
2023/06/01 02:39:47;;;;;;;0.70;0.70;;;;;;;12.82;71.04;99734.13;5055700;28;20470;-62
2023/06/01 02:42:16;;;;;;;0.57;0.57;;;;;;;12.77;71.43;99735.88;5054396;28;20049;-62
2023/06/01 02:44:45;;;;;;;0.60;0.60;;;;;;;12.68;72.00;99736.81;5054106;28;20037;-62
2023/06/01 02:47:14;;;;;;;0.60;0.60;;;;;;;12.64;72.24;99744.53;5055479;28;20069;-62
2023/06/01 02:49:43;;;;;;;0.87;0.87;;;;;;;12.65;72.53;99731.72;5054622;28;20041;-62
2023/06/01 02:52:13;;;;;;;0.80;0.80;;;;;;;12.56;72.88;99739.47;5054511;28;20052;-62
2023/06/01 02:54:42;;;;;;;0.50;0.50;;;;;;;12.54;73.06;99733.53;5054624;28;20045;-62
2023/06/01 02:57:31;;;;;;;0.50;0.50;;;;;;;12.69;72.65;99732.53;5055253;28;20052;-62
2023/06/01 03:00:15;;;;;;;4.13;2.45;;;;;;;12.70;72.37;99729.97;5055469;28;20041;-63
2023/06/01 03:02:47;;;;;;;1.67;0.63;;;;;;;12.90;72.37;99732.34;5054411;28;20049;-63
2023/06/01 03:05:16;;;;;;;1.23;1.00;;;;;;;13.07;71.89;99737.34;5054311;28;20045;-63
2023/06/01 03:07:53;;;;;;;0.50;0.50;;;;;;;12.92;71.64;99697.31;5053923;28;20045;-63
2023/06/01 03:10:27;;;;;;;1.38;1.27;;;;;;;13.25;71.28;99735.44;5053990;28;20052;-63
2023/06/01 03:13:02;;;;;;;1.58;0.80;;;;;;;13.32;70.92;99742.19;5053925;28;20056;-64
2023/06/01 03:15:31;;;;;;;0.97;0.80;;;;;;;13.39;71.02;99743.81;5053821;28;20099;-64
2023/06/01 03:18:00;;;;;;;0.60;0.60;;;;;;;13.36;70.71;99735.34;5054928;28;20285;-64
2023/06/01 03:20:30;;;;;;;0.70;0.60;;;;;;;13.37;70.78;99740.44;5053868;28;20087;-64
2023/06/01 03:23:00;;;;;;;0.97;0.70;;;;;;;13.33;70.81;99723.41;5055158;28;20087;-64
2023/06/01 03:25:29;;;;;;;1.00;0.95;;;;;;;13.44;70.59;99736.06;5054660;28;20140;-64
2023/06/01 03:27:58;;;;;;;1.70;0.97;;;;;;;13.43;70.53;99740.38;5053420;28;20087;-64
2023/06/01 03:30:28;;;;;;;0.80;0.80;;;;;;;13.39;70.60;99732.72;5053857;28;20040;-64
2023/06/01 03:32:58;;;;;;;1.02;0.90;;;;;;;13.44;71.08;99741.19;5054716;28;20079;-63
2023/06/01 03:35:27;;;;;;;0.40;0.40;;;;;;;13.49;70.62;99738.59;5054722;28;20486;-62
2023/06/01 03:37:56;;;;;;;2.20;0.65;;;;;;;13.53;70.88;99735.13;5052948;28;20049;-64
2023/06/01 03:40:26;;;;;;;2.53;1.40;;;;;;;13.56;70.58;99735.94;5054777;28;20132;-62
2023/06/01 03:42:55;;;;;;;5.00;0.90;;;;;;;13.50;70.40;99735.16;5053307;28;20056;-63
2023/06/01 03:45:24;;;;;;;4.65;1.95;;;;;;;13.40;70.79;99734.41;5053576;28;20044;-64
2023/06/01 03:47:53;;;;;;;0.70;0.70;;;;;;;13.40;71.00;99735.28;5054204;28;20095;-64
2023/06/01 03:50:22;;;;;;;0.30;0.30;;;;;;;13.39;71.25;99738.69;5053115;28;20048;-63
2023/06/01 03:52:53;;;;;;;1.35;1.13;;;;;;;13.47;71.21;99740.31;5053221;28;20087;-64
2023/06/01 03:55:22;;;;;;;1.03;0.97;;;;;;;13.54;71.14;99736.81;5053583;28;20064;-62
2023/06/01 03:58:04;;;;;;;0.60;0.60;;;;;;;13.58;70.84;99738.50;5054118;28;20049;-63
2023/06/01 04:00:36;;;;;;;0.70;0.70;;;;;;;13.54;70.85;99737.66;5054087;28;20041;-63
2023/06/01 04:03:07;;;;;;;2.00;0.50;;;;;;;13.62;70.99;99729.88;5052991;28;20051;-64
2023/06/01 04:05:37;;;;;;;3.33;1.42;;;;;;;13.74;70.68;99729.75;5054418;28;20379;-62
2023/06/01 04:08:06;;;;;;;;;;;;;;;13.85;70.16;99727.88;5053069;28;20057;-62
2023/06/01 04:10:35;;;;;;;2.03;1.90;;;;;;;13.88;70.67;99730.41;5052799;28;20374;-62
2023/06/01 04:13:05;;;;;;;0.40;0.40;;;;;;;13.92;70.33;99739.75;5053982;28;20044;-64
2023/06/01 04:15:35;;;;;;;0.50;0.50;;;;;;;13.96;70.79;99736.28;5052645;28;20049;-63
2023/06/01 04:18:06;;;;;;;0.30;0.30;;;;;;;14.13;69.96;99733.50;5054120;28;20048;-63
2023/06/01 04:20:48;;;;;;;1.40;1.25;;;;;;;14.31;69.65;99734.09;5054023;28;20040;-64
2023/06/01 04:23:17;;;;;;;1.33;1.05;;;;;;;14.42;69.16;99727.06;5052947;28;20107;-64
2023/06/01 04:25:46;;;;;;;2.05;1.00;;;;;;;14.58;69.04;99738.81;5053511;28;20049;-64
2023/06/01 04:28:16;;;;;;;1.38;1.15;;;;;;;14.66;69.05;99734.38;5052404;28;20094;-64
2023/06/01 04:30:47;;;;;;;0.60;0.60;;;;;;;14.62;68.17;99714.78;5053613;28;20053;-64
2023/06/01 04:33:16;;;;;;;1.23;1.13;;;;;;;14.95;67.73;99727.94;5052437;28;20122;-64
2023/06/01 04:35:45;;;;;;;0.60;0.60;;;;;;;15.15;67.69;99728.41;5052289;28;20049;-64
2023/06/01 04:38:16;;;;;;;0.82;0.73;;;;;;;15.32;67.32;99728.94;5053475;28;20053;-64
2023/06/01 04:40:47;;;;;;;1.85;1.00;;;;;;;15.50;66.87;99728.59;5053426;28;20090;-64
2023/06/01 04:43:18;;;;;;;0.40;0.40;;;;;;;15.72;66.38;99729.84;5053476;28;20413;-64
2023/06/01 04:45:49;;;;;;;0.77;0.77;;;;;;;15.83;66.29;99733.06;5053472;28;20285;-63
2023/06/01 04:48:20;;;;;;;1.73;1.63;;;;;;;15.91;65.33;99731.16;5052203;28;20037;-63
2023/06/01 04:50:58;;;;;;;0.77;0.70;;;;;;;15.98;65.04;99722.44;5053289;28;20049;-63
2023/06/01 04:53:28;;;;;;;0.60;0.60;;;;;;;16.19;64.56;99735.72;5035860;28;20402;-63
2023/06/01 04:55:57;;;;;;;1.13;1.02;;;;;;;16.31;63.55;99726.00;5052291;28;20044;-64
2023/06/01 04:58:28;;;;;;;;;;;;;;;16.54;63.41;99728.91;5053970;28;20069;-64
2023/06/01 05:00:57;;;;;;;0.63;0.63;;;;;;;16.62;63.41;99710.66;5068624;28;19971;-64
2023/06/01 05:03:26;;;;;;;0.98;0.80;;;;;;;16.89;63.05;99735.78;5052067;28;20567;-64
2023/06/01 05:05:56;;;;;;;0.57;0.57;;;;;;;16.81;62.13;99700.75;5051962;28;20041;-63
2023/06/01 05:08:25;;;;;;;0.73;0.73;;;;;;;16.98;62.02;99725.22;5055389;28;20064;-63
2023/06/01 05:10:54;;;;;;;1.38;1.10;;;;;;;17.00;61.31;99728.59;5056489;28;20114;-63
2023/06/01 05:13:23;;;;;;;0.70;0.70;;;;;;;17.10;61.01;99727.47;5072825;28;20521;-63
2023/06/01 05:15:53;;;;;;;0.60;0.60;;;;;;;17.36;60.48;99732.78;5056021;28;20520;-64
2023/06/01 05:18:22;;;;;;;1.42;1.17;;;;;;;17.47;60.45;99719.56;5056350;28;20072;-64
2023/06/01 05:20:51;;;;;;;1.58;1.25;;;;;;;17.56;60.26;99726.25;5056189;28;20437;-63
2023/06/01 05:23:20;;;;;;;0.40;0.40;;;;;;;17.58;60.24;99709.81;5055887;28;20099;-64
2023/06/01 05:25:49;;;;;;;0.73;0.73;;;;;;;17.74;59.70;99728.28;5057148;28;20053;-63
2023/06/01 05:28:20;;;;;;;1.08;0.77;;;;;;;17.64;59.52;99716.53;5056149;28;20674;-63
2023/06/01 05:30:50;;;;;;;0.90;0.85;;;;;;;17.73;59.57;99717.09;5056009;28;20049;-64
2023/06/01 05:33:20;;;;;;;0.82;0.82;;;;;;;17.93;59.37;99719.09;5055713;28;20398;-64
2023/06/01 05:35:49;;;;;;;0.50;0.50;;;;;;;18.12;59.33;99717.66;5055992;28;20091;-63
2023/06/01 05:38:22;;;;;;;2.47;1.48;;;;;;;18.07;59.25;99701.44;5057256;28;20049;-64
2023/06/01 05:40:51;;;;;;;0.63;0.63;;;;;;;18.35;58.98;99722.97;5055579;28;20037;-64
2023/06/01 05:43:20;;;;;;;0.57;0.57;;;;;;;18.37;58.82;99721.19;5055462;28;20060;-64
2023/06/01 05:45:49;;;;;;;0.40;0.40;;;;;;;18.40;58.64;99718.50;5055525;28;20049;-64
2023/06/01 05:48:20;;;;;;;0.80;0.80;;;;;;;18.44;58.46;99707.16;5055433;28;20196;-64
2023/06/01 05:50:53;;;;;;;3.83;1.23;;;;;;;18.62;58.27;99706.59;5055018;28;20091;-65
2023/06/01 05:53:24;;;;;;;1.27;0.85;;;;;;;18.60;57.77;99687.69;5056658;28;20075;-64
2023/06/01 05:55:53;;;;;;;6.20;2.00;;;;;;;18.82;57.60;99702.50;5055179;28;20049;-64
2023/06/01 05:58:22;;;;;;;1.77;0.97;;;;;;;18.85;57.59;99697.22;5056784;28;20479;-64
2023/06/01 06:00:51;;;;;;;0.82;0.82;;;;;;;19.01;57.38;99703.56;5054861;28;20280;-65
2023/06/01 06:03:22;;;;;;;0.93;0.88;;;;;;;19.10;57.06;99713.63;5055029;28;20063;-64
2023/06/01 06:05:51;;;;;;;0.65;0.65;;;;;;;19.23;56.72;99714.84;5056315;28;20558;-64
2023/06/01 06:08:20;;;;;;;1.03;0.93;;;;;;;19.34;56.57;99704.97;5056270;28;20037;-64
2023/06/01 06:10:49;;;;;;;1.97;1.10;;;;;;;19.59;56.29;99708.38;5056721;28;20305;-64
2023/06/01 06:13:18;;;;;;;0.60;0.60;;;;;;;19.77;55.72;99712.88;5056129;28;20053;-64
2023/06/01 06:15:47;;;;;;;1.80;1.60;;;;;;;19.80;55.53;99711.91;5056368;28;20037;-65
2023/06/01 06:18:16;;;;;;;1.00;0.90;;;;;;;19.86;56.22;99701.34;5055908;28;20048;-65
2023/06/01 06:20:46;;;;;;;0.77;0.77;;;;;;;19.95;56.04;99706.16;5055834;28;20490;-65
2023/06/01 06:23:15;;;;;;;1.15;1.05;;;;;;;20.14;56.21;99701.09;5056237;28;20128;-65
2023/06/01 06:25:46;;;;;;;1.38;0.70;;;;;;;20.24;55.93;99686.91;5055780;28;20041;-64
2023/06/01 06:28:15;;;;;;;1.17;0.98;;;;;;;20.44;55.72;99699.94;5055913;28;20052;-64
2023/06/01 06:30:44;;;;;;;0.60;0.60;;;;;;;20.53;55.41;99702.13;5054921;28;20151;-64
2023/06/01 06:33:13;;;;;;;1.73;0.73;;;;;;;20.54;55.17;99665.75;5055757;28;20136;-64
2023/06/01 06:35:43;;;;;;;;;;;;;;;20.88;54.16;99701.50;5056126;28;20049;-64
2023/06/01 06:38:16;;;;;;;3.92;1.95;;;;;;;20.90;53.28;99694.50;5055900;28;19928;-64
2023/06/01 06:40:45;;;;;;;0.50;0.50;;;;;;;20.98;53.03;99695.03;5055525;28;20095;-64
2023/06/01 06:43:15;;;;;;;0.87;0.83;;;;;;;20.95;52.81;99692.56;5055590;28;20037;-64
2023/06/01 06:45:44;;;;;;;1.00;0.85;;;;;;;20.92;53.12;99684.06;5055793;28;20084;-64
2023/06/01 06:48:12;;;;;;;0.73;0.73;;;;;;;21.07;53.66;99692.06;5055450;28;20112;-63
2023/06/01 06:50:44;;;;;;;1.33;1.13;;;;;;;21.23;53.11;99703.50;5055460;28;20094;-64
2023/06/01 06:53:14;;;;;;;0.85;0.85;;;;;;;21.28;53.07;99696.31;5054311;28;20373;-65
2023/06/01 06:55:44;;;;;;;1.02;0.93;;;;;;;21.38;52.99;99692.41;5055282;28;20136;-64
2023/06/01 06:58:17;;;;;;;5.78;1.85;;;;;;;21.56;53.01;99689.91;5055270;28;20490;-64
2023/06/01 07:00:46;;;;;;;0.73;0.73;;;;;;;21.76;53.05;99688.06;5055341;28;20069;-65
2023/06/01 07:03:16;;;;;;;1.33;1.23;;;;;;;21.92;53.01;99686.50;5055022;28;20049;-64
2023/06/01 07:05:46;;;;;;;0.80;0.80;;;;;;;22.05;52.92;99689.38;5055145;28;20059;-64
2023/06/01 07:08:16;;;;;;;2.58;1.50;;;;;;;21.97;52.24;99657.69;5054142;28;20398;-65
2023/06/01 07:10:45;;;;;;;5.68;1.85;;;;;;;22.19;52.93;99689.56;5055446;28;20033;-64
2023/06/01 07:13:14;;;;;;;1.40;1.23;;;;;;;22.22;52.47;99689.38;5055202;28;20441;-65
2023/06/01 07:15:43;;;;;;;0.47;0.47;;;;;;;22.31;52.25;99683.75;5054895;28;20045;-64
2023/06/01 07:18:11;;;;;;;1.38;1.02;;;;;;;22.41;51.19;99691.97;5055032;28;20052;-65
2023/06/01 07:20:41;;;;;;;0.68;0.68;;;;;;;22.48;50.66;99683.75;5054808;28;20048;-65
2023/06/01 07:23:12;;;;;;;1.07;0.97;;;;;;;22.66;50.40;99682.03;5054878;28;20045;-65
2023/06/01 07:25:42;;;;;;;0.60;0.60;;;;;;;22.77;50.11;99689.31;5054389;28;20049;-65
2023/06/01 07:28:12;;;;;;;1.83;0.88;;;;;;;22.52;50.06;99680.09;5054657;28;20053;-65
2023/06/01 07:30:41;;;;;;;0.95;0.93;;;;;;;22.57;49.57;99682.47;5053789;28;20045;-65
2023/06/01 07:33:10;;;;;;;3.80;0.80;;;;;;;22.78;48.54;99675.38;5054908;28;20041;-65
2023/06/01 07:35:39;;;;;;;0.50;0.50;;;;;;;22.76;48.23;99677.22;5054483;28;20286;-65
2023/06/01 07:38:09;;;;;;;0.40;0.40;;;;;;;22.63;48.63;99683.03;5053268;28;20080;-64
2023/06/01 07:40:38;;;;;;;0.80;0.80;;;;;;;22.60;49.34;99667.53;5053595;28;20266;-65
2023/06/01 07:43:08;;;;;;;2.90;1.10;;;;;;;22.86;49.44;99679.28;5054415;28;20071;-65
2023/06/01 07:45:37;;;;;;;1.65;1.00;;;;;;;22.98;49.16;99678.66;5054037;28;20045;-65
2023/06/01 07:48:06;;;;;;;0.93;0.90;;;;;;;22.97;48.92;99670.91;5052549;28;20047;-64
2023/06/01 07:50:38;;;;;;;0.55;0.55;;;;;;;22.94;48.64;99671.09;5074197;28;20048;-64
2023/06/01 07:53:08;;;;;;;0.50;0.50;;;;;;;23.16;48.68;99669.03;5074438;28;20135;-65
2023/06/01 07:55:37;;;;;;;0.70;0.70;;;;;;;23.22;48.32;99673.94;5074312;28;20043;-66
2023/06/01 07:58:06;;;;;;;0.50;0.50;;;;;;;23.04;48.36;99641.88;5064122;28;20055;-65
2023/06/01 08:00:36;;;;;;;1.20;1.10;;;;;;;23.32;48.62;99677.75;5056025;28;20067;-65
2023/06/01 08:03:05;;;;;;;3.40;1.10;;;;;;;23.30;48.27;99670.00;5074324;28;20056;-64
2023/06/01 08:05:37;;;;;;;0.90;0.68;;;;;;;23.37;48.29;99665.34;5065289;28;20053;-64
2023/06/01 08:08:07;;;;;;;0.55;0.55;;;;;;;23.44;48.19;99669.31;5055572;28;20040;-65
2023/06/01 08:10:39;;;;;;;1.08;0.90;;;;;;;23.50;48.15;99666.38;5053897;28;20072;-65
2023/06/01 08:13:07;;;;;;;1.13;0.90;;;;;;;23.58;48.16;99655.53;5053766;28;20577;-66
2023/06/01 08:15:38;;;;;;;0.80;0.73;;;;;;;23.63;48.04;99662.19;5053994;28;20551;-65
2023/06/01 08:18:07;;;;;;;2.13;1.33;;;;;;;23.60;48.10;99666.72;5053807;28;20045;-67
2023/06/01 08:20:37;;;;;;;1.15;1.05;;;;;;;23.59;47.77;99665.88;5053616;28;20041;-65
2023/06/01 08:23:06;;;;;;;1.05;0.98;;;;;;;23.62;47.78;99660.50;5054060;28;20360;-66
2023/06/01 08:25:35;;;;;;;0.57;0.50;;;;;;;23.82;47.88;99656.81;5047046;28;20037;-64
2023/06/01 08:28:04;;;;;;;;;;;;;;;23.96;47.90;99655.13;5034647;28;20390;-64
2023/06/01 08:30:33;;;;;;;0.73;0.60;;;;;;;24.08;47.69;99658.00;5040558;28;20376;-63
2023/06/01 08:33:03;;;;;;;1.00;0.90;;;;;;;24.13;47.92;99655.97;5037033;28;20286;-65
2023/06/01 08:35:33;;;;;;;2.25;1.63;;;;;;;24.12;47.88;99655.13;5033722;28;20652;-65
2023/06/01 08:38:02;;;;;;;0.63;0.63;;;;;;;24.26;47.94;99662.19;5033457;28;20096;-64
2023/06/01 08:40:32;;;;;;;;;;;;;;;24.43;47.50;99654.22;5034245;28;20045;-65
2023/06/01 08:43:10;;;;;;;0.52;0.52;;;;;;;24.62;47.90;99654.81;5033380;28;19925;-65
2023/06/01 08:45:39;;;;;;;1.13;1.02;;;;;;;24.66;47.02;99643.28;5033875;28;20042;-64
2023/06/01 08:48:15;;;;;;;1.63;1.08;;;;;;;24.75;46.67;99644.50;5051383;28;20094;-65
2023/06/01 08:50:45;;;;;;;0.50;0.50;;;;;;;24.79;45.72;99651.25;5053716;28;20044;-66
2023/06/01 08:53:20;;;;;;;1.75;1.02;;;;;;;24.78;45.58;99640.00;5053368;28;20466;-66
2023/06/01 08:55:52;;;;;;;0.50;0.50;;;;;;;24.65;44.53;99633.75;5053319;28;20538;-65
2023/06/01 08:58:21;;;;;;;0.70;0.68;;;;;;;24.82;43.42;99635.41;5053451;28;20049;-65
2023/06/01 09:00:53;;;;;;;0.47;0.47;;;;;;;25.14;43.51;99636.94;5053537;28;20064;-65
2023/06/01 09:03:24;;;;;;;4.13;0.90;;;;;;;25.19;42.49;99643.53;5053486;28;20406;-65
2023/06/01 09:05:53;;;;;;;0.68;0.68;;;;;;;25.12;42.01;99639.63;5052014;28;20053;-65
2023/06/01 09:08:24;;;;;;;0.68;0.68;;;;;;;25.21;42.87;99639.09;5053176;28;20120;-64
2023/06/01 09:10:55;;;;;;;0.95;0.85;;;;;;;25.52;44.20;99637.19;5053206;28;20049;-65
2023/06/01 09:13:35;;;;;;;0.90;0.88;;;;;;;25.69;44.11;99629.16;5053193;28;20429;-65
2023/06/01 09:16:04;;;;;;;0.50;0.50;;;;;;;25.93;43.88;99632.81;5053317;28;20051;-65
2023/06/01 09:18:35;;;;;;;0.82;0.77;;;;;;;25.85;43.38;99629.84;5053025;28;20048;-65
2023/06/01 09:21:16;;;;;;;0.60;0.60;;;;;;;26.03;42.45;99622.59;5053192;28;20052;-66
2023/06/01 09:23:45;;;;;;;1.15;0.90;;;;;;;25.71;42.97;99606.34;5053059;28;20102;-65
2023/06/01 09:26:15;;;;;;;0.45;0.45;;;;;;;25.64;42.45;99620.75;5052769;28;20112;-65
2023/06/01 09:28:55;;;;;;;1.08;0.85;;;;;;;25.61;42.71;99628.78;5053390;28;20056;-65
2023/06/01 09:31:39;;;;;;;1.52;1.10;;;;;;;25.74;43.42;99624.47;5053021;28;20064;-65
2023/06/01 09:34:11;;;;;;;0.50;0.50;;;;;;;25.89;42.94;99626.91;5052892;28;20475;-65
2023/06/01 09:36:41;;;;;;;0.65;0.65;;;;;;;25.87;42.10;99622.72;5053206;28;20063;-66
2023/06/01 09:39:13;;;;;;;0.68;0.65;;;;;;;25.84;41.09;99626.38;5068663;28;20072;-65
2023/06/01 09:41:51;;;;;;;0.52;0.52;;;;;;;25.98;40.95;99625.50;5053145;28;20045;-65
2023/06/01 09:44:25;;;;;;;2.83;0.70;;;;;;;26.07;41.48;99617.06;5052854;28;20064;-65
2023/06/01 09:46:56;;;;;;;0.82;0.70;;;;;;;26.28;41.19;99628.75;5053546;28;20494;-65
2023/06/01 09:49:28;;;;;;;1.25;1.10;;;;;;;26.32;41.64;99617.13;5052868;28;20483;-65
2023/06/01 09:52:14;;;;;;;0.50;0.50;;;;;;;26.47;40.84;99621.38;5053017;28;20452;-65
2023/06/01 09:54:45;;;;;;;0.63;0.50;;;;;;;26.53;40.60;99615.72;5054821;28;20041;-65
2023/06/01 09:57:22;;;;;;;2.15;1.40;;;;;;;26.61;41.27;99621.28;5056548;28;20071;-65
2023/06/01 09:59:51;;;;;;;0.63;0.63;;;;;;;26.58;40.50;99611.03;5056452;28;20045;-65
2023/06/01 10:02:22;;;;;;;0.43;0.35;;;;;;;26.35;40.43;99619.56;5056275;28;20052;-65
2023/06/01 10:04:54;;;;;;;0.52;0.52;;;;;;;26.35;40.61;99609.09;5056260;28;20095;-66
2023/06/01 10:07:24;;;;;;;0.60;0.60;;;;;;;26.50;41.06;99613.31;5056666;28;20425;-65
2023/06/01 10:09:57;;;;;;;0.38;0.38;;;;;;;26.26;40.64;99614.94;5056252;28;20045;-65
2023/06/01 10:12:28;;;;;;;0.40;0.40;;;;;;;26.23;40.61;99609.91;5071762;28;20136;-65
2023/06/01 10:14:57;;;;;;;0.75;0.75;;;;;;;26.28;40.44;99581.66;5056112;28;20044;-64
2023/06/01 10:17:27;;;;;;;0.60;0.60;;;;;;;26.48;40.37;99599.50;5056336;28;20060;-65
2023/06/01 10:19:58;;;;;;;0.70;0.70;;;;;;;26.65;40.28;99605.38;5056076;28;20072;-65
2023/06/01 10:22:27;;;;;;;0.40;0.40;;;;;;;26.61;39.73;99610.81;5056331;28;20067;-65
2023/06/01 10:24:58;;;;;;;0.70;0.70;;;;;;;26.58;39.12;99605.78;5055812;28;20049;-65
2023/06/01 10:27:33;;;;;;;0.80;0.77;;;;;;;26.57;38.12;99604.09;5056401;28;20059;-66
2023/06/01 10:30:04;;;;;;;0.73;0.50;;;;;;;26.42;37.84;99604.28;5054667;28;20045;-65
2023/06/01 10:32:48;;;;;;;0.55;0.55;;;;;;;26.42;37.69;99599.03;5055812;28;20064;-65
2023/06/01 10:35:39;;;;;;;0.75;0.75;;;;;;;26.46;37.59;99596.13;5055951;28;20041;-65
2023/06/01 10:38:29;;;;;;;0.80;0.77;;;;;;;26.68;36.30;99592.06;5055694;28;20051;-66
2023/06/01 10:41:28;;;;;;;0.82;0.80;;;;;;;26.46;35.13;99590.91;5055753;28;20136;-64
2023/06/01 10:43:57;;;;;;;0.60;0.60;;;;;;;26.55;36.22;99586.81;5052392;28;20514;-65
2023/06/01 10:46:41;;;;;;;0.40;0.40;;;;;;;26.68;36.55;99590.28;5055640;28;20129;-66
2023/06/01 10:49:13;;;;;;;1.00;0.90;;;;;;;26.67;37.00;99567.66;5055546;28;20056;-66
2023/06/01 10:51:42;;;;;;;1.90;1.02;;;;;;;26.85;37.15;99581.31;5055895;28;20136;-65
2023/06/01 10:54:28;;;;;;;0.75;0.75;;;;;;;26.81;38.22;99577.22;5055326;28;20433;-65
2023/06/01 10:57:18;;;;;;;0.80;0.80;;;;;;;26.89;38.87;99577.53;5055610;28;20152;-66
2023/06/01 11:00:14;;;;;;;1.20;0.93;;;;;;;27.06;39.07;99579.81;5055485;28;20045;-64
2023/06/01 11:03:05;;;;;;;0.77;0.73;;;;;;;27.28;37.79;99574.75;5055578;28;20498;-66
2023/06/01 11:05:43;;;;;;;1.55;1.17;;;;;;;27.20;37.50;99545.59;5055084;28;20040;-65
2023/06/01 11:08:34;;;;;;;0.52;0.52;;;;;;;27.46;37.20;99576.06;5055050;28;20495;-65
2023/06/01 11:11:06;;;;;;;1.30;0.88;;;;;;;27.48;37.12;99566.31;5055435;28;20049;-65
2023/06/01 11:13:36;;;;;;;0.55;0.55;;;;;;;27.42;38.11;99572.00;5055447;28;20045;-65
2023/06/01 11:16:27;;;;;;;0.60;0.50;;;;;;;27.49;37.77;99573.25;5054919;28;20041;-66
2023/06/01 11:18:58;;;;;;;0.50;0.50;;;;;;;27.65;37.95;99557.22;5054960;28;20053;-65
2023/06/01 11:21:30;;;;;;;0.85;0.82;;;;;;;27.79;37.47;99559.66;5054958;28;20131;-65
2023/06/01 11:24:01;;;;;;;0.98;0.80;;;;;;;27.93;35.80;99552.47;5054785;28;20131;-64
2023/06/01 11:26:33;;;;;;;0.85;0.85;;;;;;;27.91;34.24;99551.75;5054728;28;20189;-65
2023/06/01 11:29:08;;;;;;;0.63;0.60;;;;;;;27.87;34.01;99533.72;5055052;28;20520;-65
2023/06/01 11:31:39;;;;;;;0.60;0.60;;;;;;;28.22;34.47;99546.88;5055134;28;20139;-65
2023/06/01 11:34:10;;;;;;;0.40;0.40;;;;;;;28.24;34.45;99553.66;5054889;28;20045;-65
2023/06/01 11:36:47;;;;;;;0.60;0.60;;;;;;;28.09;33.71;99535.63;5055222;28;20060;-65
2023/06/01 11:39:24;;;;;;;1.20;0.95;;;;;;;27.99;33.64;99524.09;5054490;28;20128;-65
2023/06/01 11:42:06;;;;;;;1.58;1.00;;;;;;;28.04;33.36;99532.50;5054807;28;20552;-65
2023/06/01 11:44:37;;;;;;;0.80;0.80;;;;;;;27.88;33.19;99533.59;5054763;28;20050;-65
2023/06/01 11:47:07;;;;;;;1.42;1.00;;;;;;;27.88;32.67;99533.59;5054669;28;20383;-65
2023/06/01 11:49:45;;;;;;;1.27;0.65;;;;;;;27.96;32.74;99534.81;5054707;28;20140;-65
2023/06/01 11:52:14;;;;;;;0.77;0.52;;;;;;;28.07;33.11;99521.78;5054476;28;20473;-65
2023/06/01 11:54:43;;;;;;;0.80;0.80;;;;;;;28.13;33.16;99537.03;5054232;28;20486;-65